Time;durP1;ratioP1;P1;durP2;ratioP2;P2;SDS_P1;SDS_P2;PMS_P1;PMS_P2;Temp;Humidity;BMP_temperature;BMP_pressure;BME280_temperature;BME280_humidity;BME280_pressure;Samples;Min_cycle;Max_cycle;Signal;HPM_P1;HPM_P2
2021/06/23 00:01:22;;;;;;;0.00;0.00;;;19.80;65.00;;;;;;4224814;28;20043;-50
2021/06/23 00:03:45;;;;;;;0.00;0.00;;;19.80;65.10;;;;;;4224468;28;20490;-52
2021/06/23 00:06:08;;;;;;;0.00;0.00;;;19.80;65.10;;;;;;4224640;28;20066;-48
2021/06/23 00:08:31;;;;;;;0.00;0.00;;;19.70;65.10;;;;;;4224524;28;20059;-54
2021/06/23 00:10:54;;;;;;;0.10;0.10;;;19.80;65.20;;;;;;4224463;28;20485;-49
2021/06/23 00:13:16;;;;;;;0.00;0.00;;;19.70;65.10;;;;;;4224115;28;20409;-53
2021/06/23 00:15:39;;;;;;;0.45;0.45;;;19.80;65.20;;;;;;4224684;28;20463;-52
2021/06/23 00:18:01;;;;;;;0.00;0.00;;;19.70;65.20;;;;;;4224803;28;20048;-51
2021/06/23 00:20:24;;;;;;;0.00;0.00;;;19.80;65.30;;;;;;4224431;28;20529;-54
2021/06/23 00:22:47;;;;;;;0.00;0.00;;;19.70;65.30;;;;;;4223993;28;20410;-53
2021/06/23 00:25:12;;;;;;;0.00;0.00;;;19.80;65.30;;;;;;4224232;28;20047;-50
2021/06/23 00:27:34;;;;;;;0.10;0.10;;;19.70;65.30;;;;;;4224250;28;20051;-52
2021/06/23 00:29:56;;;;;;;0.00;0.00;;;19.70;65.30;;;;;;4225686;28;20044;-51
2021/06/23 00:32:21;;;;;;;0.20;0.20;;;19.80;66.30;;;;;;4227251;27;20047;-53
2021/06/23 00:34:43;;;;;;;0.10;0.10;;;19.70;65.30;;;;;;4227378;28;20043;-52
2021/06/23 00:37:06;;;;;;;0.00;0.00;;;19.80;65.40;;;;;;4227714;27;20052;-54
2021/06/23 00:39:28;;;;;;;0.00;0.00;;;19.70;65.40;;;;;;4227556;27;20062;-52
2021/06/23 00:41:51;;;;;;;0.17;0.17;;;19.70;65.40;;;;;;4227471;27;20047;-53
2021/06/23 00:44:14;;;;;;;0.00;0.00;;;19.70;65.40;;;;;;4227481;27;20047;-51
2021/06/23 00:46:36;;;;;;;1.13;1.13;;;19.70;65.50;;;;;;4225868;28;20048;-49
2021/06/23 00:49:00;;;;;;;0.00;0.00;;;19.80;65.50;;;;;;4227746;27;20081;-52
2021/06/23 00:51:26;;;;;;;0.20;0.20;;;19.70;65.50;;;;;;4227020;27;20050;-50
2021/06/23 00:53:55;;;;;;;0.00;0.00;;;19.70;65.50;;;;;;4227567;27;20051;-48
2021/06/23 00:56:17;;;;;;;0.00;0.00;;;19.70;65.50;;;;;;4227285;28;20047;-49
2021/06/23 00:58:41;;;;;;;0.00;0.00;;;19.70;65.50;;;;;;4210498;28;20048;-50
2021/06/23 01:01:09;;;;;;;0.00;0.00;;;19.70;65.60;;;;;;4210739;28;20777;-50
2021/06/23 01:03:32;;;;;;;0.00;0.00;;;19.70;65.50;;;;;;4211258;28;20089;-49
2021/06/23 01:06:07;;;;;;;0.00;0.00;;;19.70;65.50;;;;;;4227032;28;20051;-54
2021/06/23 01:08:30;;;;;;;0.00;0.00;;;19.70;65.50;;;;;;4227077;28;20063;-48
2021/06/23 01:10:55;;;;;;;0.15;0.15;;;19.70;65.40;;;;;;4225332;28;20055;-49
2021/06/23 01:13:36;;;;;;;0.00;0.00;;;19.70;65.50;;;;;;4210139;28;20843;-50
2021/06/23 01:16:04;;;;;;;0.00;0.00;;;19.70;65.60;;;;;;4208515;28;20786;-47
2021/06/23 01:18:27;;;;;;;0.00;0.00;;;19.70;65.50;;;;;;4216328;28;20112;-49
2021/06/23 01:20:50;;;;;;;0.55;0.55;;;19.70;65.50;;;;;;4226889;27;20567;-47
2021/06/23 01:23:15;;;;;;;0.00;0.00;;;19.70;65.60;;;;;;4226833;27;20748;-50
2021/06/23 01:25:39;;;;;;;0.00;0.00;;;19.70;65.50;;;;;;4226825;27;20047;-50
2021/06/23 01:28:01;;;;;;;0.00;0.00;;;19.70;65.60;;;;;;4226854;27;20101;-49
2021/06/23 01:30:31;;;;;;;0.00;0.00;;;19.70;65.60;;;;;;4224931;28;20085;-52
2021/06/23 01:33:13;;;;;;;0.75;0.30;;;19.70;65.60;;;;;;4225029;28;20051;-50
2021/06/23 01:35:35;;;;;;;0.10;0.10;;;19.70;65.60;;;;;;4225310;27;20044;-53
2021/06/23 01:38:01;;;;;;;0.00;0.00;;;19.70;65.60;;;;;;4227050;27;20116;-52
2021/06/23 01:40:24;;;;;;;0.00;0.00;;;19.70;65.60;;;;;;4226319;27;20059;-50
2021/06/23 01:42:47;;;;;;;0.08;0.08;;;19.60;65.60;;;;;;4222423;28;20039;-50
2021/06/23 01:45:11;;;;;;;0.00;0.00;;;19.60;65.50;;;;;;4217596;28;20048;-51
2021/06/23 01:47:34;;;;;;;4.72;3.25;;;19.70;65.60;;;;;;4225096;28;20122;-52
2021/06/23 01:49:57;;;;;;;0.00;0.00;;;19.60;66.50;;;;;;4225231;27;20072;-50
2021/06/23 01:52:19;;;;;;;8.25;1.48;;;19.60;65.70;;;;;;4223801;27;20044;-50
2021/06/23 01:54:42;;;;;;;0.00;0.00;;;19.60;65.70;;;;;;4225140;28;20051;-51
2021/06/23 01:57:10;;;;;;;0.03;0.03;;;19.60;65.70;;;;;;4226057;28;20126;-51
2021/06/23 01:59:32;;;;;;;0.20;0.20;;;19.60;65.70;;;;;;4226121;27;20051;-53
2021/06/23 02:02:30;;;;;;;0.00;0.00;;;19.60;65.70;;;;;;4157314;28;20080;-49
2021/06/23 02:05:04;;;;;;;0.00;0.00;;;19.60;65.70;;;;;;4217796;28;20047;-53
2021/06/23 02:07:55;;;;;;;0.00;0.00;;;19.60;65.70;;;;;;4225864;28;20086;-51
2021/06/23 02:10:51;;;;;;;0.00;0.00;;;19.60;65.70;;;;;;4224467;28;20542;-51
2021/06/23 02:14:04;;;;;;;0.00;0.00;;;19.60;65.80;;;;;;4225732;27;20485;-49
2021/06/23 02:16:35;;;;;;;4.68;1.88;;;19.60;65.80;;;;;;4224062;28;20290;-51
2021/06/23 02:19:03;;;;;;;0.00;0.00;;;19.60;65.80;;;;;;4224389;28;20085;-54
2021/06/23 02:21:54;;;;;;;0.10;0.10;;;19.60;65.80;;;;;;4218342;27;20074;-49
2021/06/23 02:24:17;;;;;;;0.10;0.10;;;19.60;65.80;;;;;;4224120;28;20047;-52
2021/06/23 02:26:46;;;;;;;0.00;0.00;;;19.60;65.90;;;;;;4223901;28;20441;-48
2021/06/23 02:29:10;;;;;;;0.00;0.00;;;19.60;65.90;;;;;;4224675;28;20133;-49
2021/06/23 02:31:38;;;;;;;0.00;0.00;;;19.60;65.90;;;;;;4224451;28;20055;-51
2021/06/23 02:34:04;;;;;;;0.00;0.00;;;19.60;65.90;;;;;;4224332;28;20126;-52
2021/06/23 02:36:39;;;;;;;0.00;0.00;;;19.60;66.90;;;;;;4224286;28;20036;-52
2021/06/23 02:39:01;;;;;;;0.05;0.05;;;19.60;66.00;;;;;;4224388;28;20417;-51
2021/06/23 02:41:23;;;;;;;0.00;0.00;;;19.60;66.00;;;;;;4225781;27;20048;-51
2021/06/23 02:43:48;;;;;;;0.50;0.50;;;19.60;66.00;;;;;;4225635;27;20055;-52
2021/06/23 02:46:23;;;;;;;0.00;0.00;;;19.60;66.00;;;;;;4224889;28;20142;-52
2021/06/23 02:48:51;;;;;;;2.65;0.55;;;19.60;66.00;;;;;;4225552;27;20062;-49
2021/06/23 02:51:28;;;;;;;0.00;0.00;;;19.50;66.90;;;;;;4223579;28;20051;-52
2021/06/23 02:53:55;;;;;;;0.17;0.17;;;19.60;66.10;;;;;;4223766;28;20051;-50
2021/06/23 02:56:22;;;;;;;0.00;0.00;;;19.50;66.10;;;;;;4223937;28;20060;-48
2021/06/23 02:58:46;;;;;;;0.25;0.25;;;19.60;66.10;;;;;;4225533;27;20485;-50
2021/06/23 03:01:08;;;;;;;0.00;0.00;;;19.50;66.10;;;;;;4224020;28;20052;-50
2021/06/23 03:03:38;;;;;;;0.00;0.00;;;19.50;66.20;;;;;;4224317;28;20481;-51
2021/06/23 03:06:02;;;;;;;0.00;0.00;;;19.50;66.20;;;;;;4223906;27;20140;-54
2021/06/23 03:08:24;;;;;;;0.00;0.00;;;19.50;67.10;;;;;;4225695;27;20489;-52
2021/06/23 03:10:47;;;;;;;0.00;0.00;;;19.60;66.30;;;;;;4223582;28;20047;-54
2021/06/23 03:13:41;;;;;;;0.00;0.00;;;19.50;66.30;;;;;;4190295;27;20044;-53
2021/06/23 03:16:15;;;;;;;0.10;0.10;;;19.50;67.20;;;;;;4223954;28;20039;-50
2021/06/23 03:18:38;;;;;;;0.00;0.00;;;19.60;66.40;;;;;;4224973;27;20813;-54
2021/06/23 03:21:02;;;;;;;0.00;0.00;;;19.50;66.30;;;;;;4224932;27;20055;-52
2021/06/23 03:23:27;;;;;;;0.03;0.03;;;19.60;66.40;;;;;;4225249;27;20055;-51
2021/06/23 03:25:51;;;;;;;0.38;0.38;;;19.50;66.40;;;;;;4223733;28;20044;-54
2021/06/23 03:28:13;;;;;;;0.00;0.00;;;19.50;66.40;;;;;;4225153;27;20044;-53
2021/06/23 03:30:41;;;;;;;0.00;0.00;;;19.50;66.40;;;;;;4223102;28;20043;-52
2021/06/23 03:33:05;;;;;;;0.00;0.00;;;19.50;66.50;;;;;;4225115;28;20052;-51
2021/06/23 03:35:48;;;;;;;2.50;1.85;;;19.50;66.50;;;;;;4223672;28;20052;-53
2021/06/23 03:38:11;;;;;;;0.10;0.10;;;19.50;66.50;;;;;;4225387;27;20162;-52
2021/06/23 03:40:33;;;;;;;0.30;0.30;;;19.50;67.50;;;;;;4223443;28;20048;-51
2021/06/23 03:42:55;;;;;;;0.13;0.13;;;19.50;66.60;;;;;;4223505;28;20130;-48
2021/06/23 03:45:37;;;;;;;0.00;0.00;;;19.50;66.60;;;;;;4223147;28;20435;-51
2021/06/23 03:48:00;;;;;;;0.00;0.00;;;19.50;66.70;;;;;;4223735;28;20055;-52
2021/06/23 03:50:22;;;;;;;0.00;0.00;;;19.50;66.70;;;;;;4223455;28;20111;-51
2021/06/23 03:52:47;;;;;;;0.00;0.00;;;19.50;66.80;;;;;;4223411;28;20386;-50
2021/06/23 03:55:19;;;;;;;0.10;0.10;;;19.50;67.70;;;;;;4224793;28;21202;-51
2021/06/23 03:57:43;;;;;;;0.00;0.00;;;19.50;67.00;;;;;;4206642;28;20051;-51
2021/06/23 04:00:07;;;;;;;0.00;0.00;;;19.50;66.90;;;;;;4207937;28;20709;-48
2021/06/23 04:02:40;;;;;;;0.00;0.00;;;19.50;67.90;;;;;;4208184;28;20569;-51
2021/06/23 04:05:02;;;;;;;0.00;0.00;;;19.50;67.00;;;;;;4226237;28;20039;-53
2021/06/23 04:07:31;;;;;;;0.00;0.00;;;19.50;67.00;;;;;;4226573;27;20048;-52
2021/06/23 04:09:54;;;;;;;0.15;0.15;;;19.50;67.00;;;;;;4227951;28;20046;-49
2021/06/23 04:12:21;;;;;;;0.00;0.00;;;19.50;67.10;;;;;;4226697;28;20505;-49
2021/06/23 04:14:44;;;;;;;0.00;0.00;;;19.40;67.10;;;;;;4226761;27;20059;-53
2021/06/23 04:17:07;;;;;;;0.00;0.00;;;19.40;67.10;;;;;;4228328;28;20052;-49
2021/06/23 04:19:29;;;;;;;0.00;0.00;;;19.40;67.10;;;;;;4228199;28;20134;-52
2021/06/23 04:21:55;;;;;;;0.00;0.00;;;19.50;67.20;;;;;;4226594;27;20511;-48
2021/06/23 04:24:17;;;;;;;0.30;0.30;;;19.40;67.20;;;;;;4228002;27;20051;-48
2021/06/23 04:26:41;;;;;;;0.00;0.00;;;19.40;67.20;;;;;;4226081;28;20052;-53
2021/06/23 04:29:04;;;;;;;0.20;0.20;;;19.40;67.30;;;;;;4227420;27;20051;-49
2021/06/23 04:31:26;;;;;;;0.00;0.00;;;19.40;67.30;;;;;;4226674;27;20489;-52
2021/06/23 04:33:48;;;;;;;0.00;0.00;;;19.40;67.30;;;;;;4227156;27;20047;-52
2021/06/23 04:36:11;;;;;;;0.00;0.00;;;19.40;67.40;;;;;;4226227;28;20142;-50
2021/06/23 04:38:34;;;;;;;0.00;0.00;;;19.40;67.40;;;;;;4227793;27;20082;-50
2021/06/23 04:40:57;;;;;;;0.20;0.20;;;19.40;68.30;;;;;;4226948;27;20043;-52
2021/06/23 04:43:20;;;;;;;0.00;0.00;;;19.40;67.50;;;;;;4227914;28;20071;-50
2021/06/23 04:45:43;;;;;;;0.00;0.00;;;19.40;67.50;;;;;;4226162;28;20059;-51
2021/06/23 04:48:08;;;;;;;0.10;0.10;;;19.40;67.60;;;;;;4226105;28;20040;-50
2021/06/23 04:50:32;;;;;;;0.00;0.00;;;19.40;67.60;;;;;;4227215;27;20097;-50
2021/06/23 04:53:01;;;;;;;0.25;0.25;;;19.40;67.70;;;;;;4226414;28;20139;-51
2021/06/23 04:55:23;;;;;;;0.00;0.00;;;19.40;67.70;;;;;;4227614;27;20043;-51
2021/06/23 04:57:54;;;;;;;0.00;0.00;;;19.40;67.70;;;;;;4225737;28;20049;-49
2021/06/23 05:00:21;;;;;;;0.00;0.00;;;19.40;67.80;;;;;;4225412;28;20055;-51
2021/06/23 05:02:44;;;;;;;0.10;0.10;;;19.40;67.80;;;;;;4226191;28;20048;-53
2021/06/23 05:05:07;;;;;;;0.00;0.00;;;19.40;67.80;;;;;;4227111;27;20047;-50
2021/06/23 05:07:29;;;;;;;0.00;0.00;;;19.40;67.80;;;;;;4227572;27;20060;-48
2021/06/23 05:09:52;;;;;;;0.00;0.00;;;19.40;67.90;;;;;;4227456;27;20075;-51
2021/06/23 05:12:15;;;;;;;0.00;0.00;;;19.40;68.70;;;;;;4227311;27;20051;-51
2021/06/23 05:14:38;;;;;;;0.00;0.00;;;19.40;67.90;;;;;;4227316;27;20130;-50
2021/06/23 05:17:02;;;;;;;0.10;0.10;;;19.40;69.00;;;;;;4227126;27;20067;-49
2021/06/23 05:19:24;;;;;;;0.00;0.00;;;19.40;68.40;;;;;;4227158;27;20092;-50
2021/06/23 05:21:46;;;;;;;0.00;0.00;;;19.40;68.60;;;;;;4226741;27;20054;-55
2021/06/23 05:24:09;;;;;;;0.00;0.00;;;19.40;68.60;;;;;;4227277;27;20443;-54
2021/06/23 05:26:31;;;;;;;0.00;0.00;;;19.40;68.60;;;;;;4226756;27;20062;-49
2021/06/23 05:28:53;;;;;;;0.00;0.00;;;19.40;68.60;;;;;;4226760;27;20089;-48
2021/06/23 05:31:15;;;;;;;0.00;0.00;;;19.50;69.00;;;;;;4226354;27;20396;-52
2021/06/23 05:33:39;;;;;;;0.30;0.30;;;19.50;68.90;;;;;;4226590;27;20051;-50
2021/06/23 05:36:01;;;;;;;11.13;1.92;;;19.50;68.70;;;;;;4226679;27;20051;-53
2021/06/23 05:38:23;;;;;;;0.00;0.00;;;19.50;68.70;;;;;;4226806;27;20051;-52
2021/06/23 05:40:46;;;;;;;0.00;0.00;;;19.50;68.60;;;;;;4222568;27;20056;-49
2021/06/23 05:43:08;;;;;;;0.73;0.45;;;19.50;68.60;;;;;;4224263;28;20512;-49
2021/06/23 05:45:30;;;;;;;0.00;0.00;;;19.50;68.70;;;;;;4226915;28;20062;-50
2021/06/23 05:47:52;;;;;;;0.00;0.00;;;19.50;68.70;;;;;;4225775;27;20059;-50
2021/06/23 05:50:16;;;;;;;0.30;0.30;;;19.40;68.60;;;;;;4226462;27;20366;-52
2021/06/23 05:52:38;;;;;;;0.00;0.00;;;19.40;68.60;;;;;;4224911;28;20088;-51
2021/06/23 05:55:00;;;;;;;1.95;0.38;;;19.40;68.60;;;;;;4226250;28;20556;-46
2021/06/23 05:57:22;;;;;;;0.00;0.00;;;19.40;68.60;;;;;;4209855;28;20406;-52
2021/06/23 05:59:45;;;;;;;0.00;0.00;;;19.40;68.60;;;;;;4226329;28;20050;-48
2021/06/23 06:02:08;;;;;;;0.00;0.00;;;19.40;68.60;;;;;;4224764;28;20044;-50
2021/06/23 06:04:30;;;;;;;0.08;0.08;;;19.40;68.60;;;;;;4226175;27;20055;-50
2021/06/23 06:06:53;;;;;;;0.10;0.10;;;19.40;68.60;;;;;;4226134;28;20052;-48
2021/06/23 06:09:15;;;;;;;0.00;0.00;;;19.40;68.60;;;;;;4223774;27;20136;-50
2021/06/23 06:11:37;;;;;;;0.00;0.00;;;19.40;68.60;;;;;;4223955;28;20048;-48
2021/06/23 06:14:00;;;;;;;0.00;0.00;;;19.40;68.70;;;;;;4225162;27;20047;-49
2021/06/23 06:16:22;;;;;;;0.00;0.00;;;19.40;68.70;;;;;;4226242;27;20499;-49
2021/06/23 06:18:46;;;;;;;0.30;0.30;;;19.30;68.60;;;;;;4226022;27;20433;-53
2021/06/23 06:21:08;;;;;;;0.10;0.10;;;19.40;68.70;;;;;;4225996;27;20485;-52
2021/06/23 06:23:32;;;;;;;0.05;0.05;;;19.40;68.80;;;;;;4225883;27;20161;-52
2021/06/23 06:25:54;;;;;;;0.00;0.00;;;19.30;68.70;;;;;;4224632;28;20058;-51
2021/06/23 06:28:16;;;;;;;0.00;0.00;;;19.30;68.70;;;;;;4208377;28;20458;-51
2021/06/23 06:30:39;;;;;;;0.00;0.00;;;19.30;68.70;;;;;;4217869;28;20098;-52
2021/06/23 06:33:01;;;;;;;0.10;0.10;;;19.30;68.70;;;;;;4225777;27;20049;-50
2021/06/23 06:35:24;;;;;;;0.20;0.20;;;19.30;68.80;;;;;;4225730;27;20044;-53
2021/06/23 06:37:46;;;;;;;0.00;0.00;;;19.30;68.80;;;;;;4224728;28;20481;-54
2021/06/23 06:40:10;;;;;;;0.90;0.55;;;19.30;68.80;;;;;;4225421;28;20043;-51
2021/06/23 06:42:32;;;;;;;0.00;0.00;;;19.30;68.80;;;;;;4224540;28;20494;-52
2021/06/23 06:44:54;;;;;;;0.03;0.03;;;19.30;68.90;;;;;;4225796;27;20097;-50
2021/06/23 06:47:17;;;;;;;0.00;0.00;;;19.30;68.80;;;;;;4225802;27;20421;-53
2021/06/23 06:49:39;;;;;;;0.90;0.70;;;19.30;68.90;;;;;;4225193;28;20509;-50
2021/06/23 06:52:01;;;;;;;0.00;0.00;;;19.30;68.80;;;;;;4225463;27;20052;-50
2021/06/23 06:54:24;;;;;;;0.00;0.00;;;19.30;68.90;;;;;;4225711;27;20044;-50
2021/06/23 06:56:47;;;;;;;0.00;0.00;;;19.30;68.80;;;;;;4225509;28;20126;-51
2021/06/23 06:59:10;;;;;;;0.13;0.13;;;19.30;68.80;;;;;;4225308;27;20048;-51
2021/06/23 07:01:33;;;;;;;0.00;0.00;;;19.30;68.80;;;;;;4225472;28;20051;-50
2021/06/23 07:03:55;;;;;;;0.00;0.00;;;19.40;68.90;;;;;;4225643;28;20047;-51
2021/06/23 07:06:17;;;;;;;0.00;0.00;;;19.30;68.80;;;;;;4223715;28;20064;-50
2021/06/23 07:08:39;;;;;;;0.57;0.57;;;19.40;68.90;;;;;;4226224;28;20071;-52
2021/06/23 07:11:07;;;;;;;0.00;0.00;;;19.30;68.90;;;;;;4225123;27;20036;-51
2021/06/23 07:13:30;;;;;;;0.45;0.45;;;19.40;69.30;;;;;;4224878;27;20083;-51
2021/06/23 07:15:52;;;;;;;0.00;0.00;;;19.40;69.10;;;;;;4215653;27;20124;-51
2021/06/23 07:18:15;;;;;;;0.00;0.00;;;19.40;69.00;;;;;;4211906;28;20067;-46
2021/06/23 07:20:37;;;;;;;0.47;0.47;;;19.40;69.00;;;;;;4224399;28;20136;-51
2021/06/23 07:22:59;;;;;;;0.00;0.00;;;19.40;68.90;;;;;;4208422;28;20766;-50
2021/06/23 07:25:21;;;;;;;0.17;0.17;;;19.40;68.90;;;;;;4209105;28;20040;-50
2021/06/23 07:27:44;;;;;;;0.00;0.00;;;19.40;68.90;;;;;;4209380;28;20052;-51
2021/06/23 07:30:09;;;;;;;0.10;0.10;;;19.40;68.90;;;;;;4217811;28;20126;-48
2021/06/23 07:32:34;;;;;;;0.10;0.10;;;19.40;69.40;;;;;;4224317;28;20572;-50
2021/06/23 07:37:33;;;;;;;0.00;0.00;;;19.40;69.40;;;;;;4224857;28;20413;-52
2021/06/23 07:39:56;;;;;;;0.03;0.03;;;19.40;69.30;;;;;;4224778;28;20535;-53
2021/06/23 07:42:18;;;;;;;0.10;0.10;;;19.40;69.30;;;;;;4224475;28;20048;-49
2021/06/23 07:44:44;;;;;;;0.00;0.00;;;19.40;69.30;;;;;;4222771;28;20044;-53
2021/06/23 07:47:10;;;;;;;0.10;0.10;;;19.40;69.50;;;;;;4213839;28;20052;-51
2021/06/23 07:49:34;;;;;;;1.08;1.08;;;19.40;69.40;;;;;;4223748;28;20063;-51
2021/06/23 07:52:01;;;;;;;0.10;0.10;;;19.40;69.50;;;;;;4224093;28;20040;-51
2021/06/23 07:54:32;;;;;;;0.00;0.00;;;19.40;69.50;;;;;;4224330;28;20048;-48
2021/06/23 08:10:53;;;;;;;0.30;0.30;;;19.40;69.20;;;;;;4224338;28;20044;-52
2021/06/23 08:13:16;;;;;;;0.00;0.00;;;19.40;69.00;;;;;;4224206;28;20074;-51
2021/06/23 08:15:40;;;;;;;2.13;0.30;;;19.40;69.00;;;;;;4224462;28;20063;-52
2021/06/23 08:18:05;;;;;;;0.00;0.00;;;19.40;68.90;;;;;;4222834;28;20047;-51
2021/06/23 08:20:28;;;;;;;2.08;0.98;;;19.40;68.80;;;;;;4224202;28;20124;-47
2021/06/23 08:22:50;;;;;;;0.00;0.00;;;19.40;68.70;;;;;;4224403;28;20490;-50
2021/06/23 08:25:13;;;;;;;0.00;0.00;;;19.40;68.60;;;;;;4224552;28;20047;-47
2021/06/23 08:27:35;;;;;;;0.22;0.22;;;19.40;68.60;;;;;;4223751;28;20047;-51
2021/06/23 08:29:57;;;;;;;0.52;0.52;;;19.40;68.60;;;;;;4224371;28;20044;-52
2021/06/23 08:32:19;;;;;;;0.43;0.43;;;19.40;68.60;;;;;;4222793;28;20054;-53
2021/06/23 08:34:43;;;;;;;0.55;0.55;;;19.40;69.50;;;;;;4223641;28;20123;-52
2021/06/23 08:37:05;;;;;;;0.00;0.00;;;19.40;68.50;;;;;;4223990;28;20044;-50
2021/06/23 08:39:27;;;;;;;6.13;1.17;;;19.40;68.40;;;;;;4223771;28;20048;-48
2021/06/23 08:41:49;;;;;;;0.00;0.00;;;19.40;68.40;;;;;;4224310;28;20043;-52
2021/06/23 08:44:12;;;;;;;0.08;0.08;;;19.50;68.40;;;;;;4224154;28;20043;-52
2021/06/23 08:46:34;;;;;;;0.00;0.00;;;19.50;68.40;;;;;;4224108;28;20135;-52
2021/06/23 08:48:56;;;;;;;0.00;0.00;;;19.50;68.30;;;;;;4223788;28;20047;-51
2021/06/23 08:51:21;;;;;;;0.00;0.00;;;19.50;68.20;;;;;;4226065;28;20071;-50
2021/06/23 08:53:43;;;;;;;0.20;0.20;;;19.50;68.20;;;;;;4227241;27;20070;-51
2021/06/23 08:56:07;;;;;;;0.70;0.43;;;19.50;68.10;;;;;;4227002;28;20071;-47
2021/06/23 08:58:30;;;;;;;0.00;0.00;;;19.50;68.10;;;;;;4227525;27;20108;-47
2021/06/23 09:00:53;;;;;;;0.00;0.00;;;19.50;68.00;;;;;;4226560;27;20106;-47
2021/06/23 09:03:15;;;;;;;0.00;0.00;;;19.50;67.90;;;;;;4227147;27;20051;-48
2021/06/23 09:05:50;;;;;;;0.00;0.00;;;19.50;67.80;;;;;;4226756;27;20051;-48
2021/06/23 09:08:13;;;;;;;0.00;0.00;;;19.50;67.80;;;;;;4227094;27;20047;-48
2021/06/23 09:10:37;;;;;;;0.35;0.35;;;19.50;67.80;;;;;;4227048;27;20059;-50
2021/06/23 09:13:17;;;;;;;0.00;0.00;;;19.50;67.70;;;;;;4226881;27;20105;-51
2021/06/23 09:15:40;;;;;;;0.00;0.00;;;19.50;67.60;;;;;;4226669;27;20055;-52
2021/06/23 09:18:10;;;;;;;0.00;0.00;;;19.50;67.50;;;;;;4226657;28;20043;-52
2021/06/23 09:20:36;;;;;;;3.28;2.70;;;19.50;67.60;;;;;;4226546;27;20055;-53
2021/06/23 09:22:58;;;;;;;0.00;0.00;;;19.50;68.30;;;;;;4226171;27;20046;-50
2021/06/23 09:25:27;;;;;;;0.28;0.28;;;19.60;69.10;;;;;;4226865;27;20076;-52
2021/06/23 09:27:53;;;;;;;1.10;1.00;;;19.60;70.30;;;;;;4226558;27;20040;-54
2021/06/23 09:30:27;;;;;;;1.55;1.05;;;19.60;69.30;;;;;;4226136;27;20051;-51
2021/06/23 09:33:10;;;;;;;0.40;0.40;;;19.60;69.10;;;;;;4221559;28;20043;-47
2021/06/23 09:35:32;;;;;;;5.07;2.33;;;19.60;68.70;;;;;;4226356;28;20051;-50
2021/06/23 09:37:55;;;;;;;3.53;2.30;;;19.60;68.50;;;;;;4226554;27;20480;-51
2021/06/23 09:40:21;;;;;;;0.10;0.10;;;19.50;68.30;;;;;;4226411;27;20040;-53
2021/06/23 09:42:46;;;;;;;0.30;0.30;;;19.50;68.20;;;;;;4224717;28;20059;-51
2021/06/23 09:45:11;;;;;;;0.20;0.20;;;19.50;68.20;;;;;;4226301;27;20043;-51
2021/06/23 09:47:35;;;;;;;0.00;0.00;;;19.50;68.00;;;;;;4226798;27;20109;-53
2021/06/23 09:49:57;;;;;;;0.10;0.10;;;19.50;67.90;;;;;;4225903;27;20086;-49
2021/06/23 09:52:20;;;;;;;0.52;0.52;;;19.50;67.90;;;;;;4226523;27;20051;-52
2021/06/23 09:54:50;;;;;;;1.15;0.75;;;19.50;67.80;;;;;;4226516;28;20047;-49
2021/06/23 09:57:14;;;;;;;0.23;0.23;;;19.50;67.70;;;;;;4226095;28;20071;-50
2021/06/23 09:59:39;;;;;;;0.00;0.00;;;19.50;67.70;;;;;;4209664;28;20044;-49
2021/06/23 10:02:02;;;;;;;1.23;1.10;;;19.50;67.60;;;;;;4208702;28;20062;-52
2021/06/23 10:04:32;;;;;;;0.00;0.00;;;19.50;67.60;;;;;;4220848;27;20185;-52
2021/06/23 10:06:54;;;;;;;0.10;0.10;;;19.50;67.50;;;;;;4225908;27;20505;-49
2021/06/23 10:09:22;;;;;;;0.08;0.08;;;19.50;67.50;;;;;;4225631;27;20084;-49
2021/06/23 10:11:44;;;;;;;17.63;1.00;;;19.50;67.40;;;;;;4226047;28;20057;-52
2021/06/23 10:14:07;;;;;;;0.00;0.00;;;19.50;67.40;;;;;;4226200;28;20599;-53
2021/06/23 10:16:31;;;;;;;1.17;0.68;;;19.50;67.30;;;;;;4225894;28;20498;-48
2021/06/23 10:18:55;;;;;;;0.25;0.25;;;19.50;67.30;;;;;;4225961;28;20070;-55
2021/06/23 10:21:17;;;;;;;2.45;1.45;;;19.50;67.20;;;;;;4225985;28;20096;-49
2021/06/23 10:23:39;;;;;;;0.00;0.00;;;19.50;67.10;;;;;;4225636;28;20051;-51
2021/06/23 10:26:02;;;;;;;0.00;0.00;;;19.50;67.00;;;;;;4226160;28;20039;-51
2021/06/23 10:28:26;;;;;;;0.00;0.00;;;19.50;67.00;;;;;;4208724;28;20048;-55
2021/06/23 10:30:49;;;;;;;0.00;0.00;;;19.50;66.90;;;;;;4208341;28;20490;-52
2021/06/23 10:33:13;;;;;;;0.80;0.80;;;19.50;66.80;;;;;;4209109;28;20052;-53
2021/06/23 10:35:35;;;;;;;0.00;0.00;;;19.50;66.80;;;;;;4192124;28;20064;-54
2021/06/23 10:37:58;;;;;;;2.78;0.73;;;19.50;66.80;;;;;;4191584;28;20048;-54
2021/06/23 10:40:21;;;;;;;1.13;1.05;;;19.50;66.80;;;;;;4191625;28;20134;-50
2021/06/23 10:42:44;;;;;;;2.30;0.80;;;19.50;66.70;;;;;;4192053;28;20048;-49
2021/06/23 10:45:08;;;;;;;0.38;0.38;;;19.50;66.60;;;;;;4207820;28;20516;-48
2021/06/23 10:47:33;;;;;;;0.05;0.05;;;19.50;66.60;;;;;;4208573;28;20464;-51
2021/06/23 10:49:58;;;;;;;0.20;0.20;;;19.50;66.60;;;;;;4208519;28;20134;-48
2021/06/23 10:52:36;;;;;;;0.80;0.80;;;19.50;66.60;;;;;;4208391;28;20131;-48
2021/06/23 10:54:59;;;;;;;0.15;0.15;;;19.60;66.60;;;;;;4208384;28;20052;-51
2021/06/23 10:57:24;;;;;;;1.48;1.38;;;19.50;66.50;;;;;;4208745;28;20409;-51
2021/06/23 10:59:48;;;;;;;0.45;0.45;;;19.50;66.50;;;;;;4208080;28;20440;-49
2021/06/23 11:02:11;;;;;;;0.70;0.70;;;19.50;66.50;;;;;;4209060;28;22339;-46
2021/06/23 11:05:06;;;;;;;0.15;0.15;;;19.50;66.40;;;;;;4201232;28;20052;-50
2021/06/23 11:07:36;;;;;;;0.60;0.60;;;19.50;66.40;;;;;;4207763;28;20422;-51
2021/06/23 11:10:25;;;;;;;0.00;0.00;;;19.50;66.40;;;;;;4208381;28;20055;-51
2021/06/23 11:12:49;;;;;;;0.13;0.13;;;19.50;66.40;;;;;;4207846;28;20048;-50
2021/06/23 11:15:13;;;;;;;1.30;0.65;;;19.50;66.30;;;;;;4208182;28;20048;-49
2021/06/23 11:17:35;;;;;;;0.00;0.00;;;19.50;66.30;;;;;;4208337;28;20051;-46
2021/06/23 11:19:57;;;;;;;0.20;0.20;;;19.50;66.30;;;;;;4207963;28;20048;-52
2021/06/23 11:22:21;;;;;;;0.68;0.68;;;19.60;66.30;;;;;;4208235;28;20143;-46
2021/06/23 11:24:43;;;;;;;0.80;0.80;;;19.50;66.20;;;;;;4208053;28;20037;-50
2021/06/23 11:27:15;;;;;;;0.10;0.10;;;19.50;66.20;;;;;;4208391;28;20101;-51
2021/06/23 11:29:39;;;;;;;0.68;0.43;;;19.60;66.20;;;;;;4207189;28;20463;-51
2021/06/23 11:32:11;;;;;;;0.85;0.68;;;19.60;66.20;;;;;;4206468;28;20089;-50
2021/06/23 11:34:58;;;;;;;0.70;0.70;;;19.60;66.10;;;;;;4207203;28;20052;-50
2021/06/23 11:37:27;;;;;;;0.15;0.15;;;19.60;66.10;;;;;;4207810;28;20051;-53
2021/06/23 11:39:50;;;;;;;0.20;0.20;;;19.60;66.00;;;;;;4207369;28;20094;-51
2021/06/23 11:42:13;;;;;;;0.20;0.20;;;19.70;65.90;;;;;;4207664;28;20054;-52
2021/06/23 11:44:38;;;;;;;0.10;0.10;;;19.70;65.90;;;;;;4207661;28;20505;-51
2021/06/23 11:47:01;;;;;;;0.22;0.22;;;19.70;66.00;;;;;;4206603;28;20054;-51
2021/06/23 11:49:23;;;;;;;0.70;0.70;;;19.60;66.10;;;;;;4207260;28;20036;-52
2021/06/23 11:51:45;;;;;;;3.42;0.65;;;19.70;66.20;;;;;;4207505;28;20040;-51
2021/06/23 11:54:13;;;;;;;0.80;0.80;;;19.70;66.30;;;;;;4207102;28;20046;-50
2021/06/23 11:56:35;;;;;;;0.47;0.47;;;19.70;66.20;;;;;;4207749;28;20056;-52
2021/06/23 11:58:57;;;;;;;0.35;0.35;;;19.70;66.20;;;;;;4207877;28;20075;-49
2021/06/23 12:01:20;;;;;;;0.10;0.10;;;19.70;66.00;;;;;;4191314;28;20521;-47
2021/06/23 12:03:42;;;;;;;0.45;0.45;;;19.70;65.90;;;;;;4206114;28;20079;-48
2021/06/23 12:06:05;;;;;;;1.98;1.75;;;19.70;65.90;;;;;;4207152;28;20044;-48
2021/06/23 12:08:28;;;;;;;1.00;1.00;;;19.80;65.70;;;;;;4206466;28;20083;-47
2021/06/23 12:10:51;;;;;;;3.20;1.35;;;19.80;65.50;;;;;;4207479;28;20407;-49
2021/06/23 12:13:15;;;;;;;0.00;0.00;;;19.80;65.60;;;;;;4207888;28;20414;-51
2021/06/23 12:15:38;;;;;;;0.00;0.00;;;19.80;65.30;;;;;;4207821;28;20803;-50
2021/06/23 12:18:03;;;;;;;0.00;0.00;;;19.80;65.20;;;;;;4207280;28;20415;-50
2021/06/23 12:20:28;;;;;;;1.02;0.98;;;19.90;65.00;;;;;;4190174;28;20132;-49
2021/06/23 12:22:56;;;;;;;0.00;0.00;;;19.90;64.80;;;;;;4190531;28;20049;-50
2021/06/23 12:25:18;;;;;;;0.00;0.00;;;19.90;64.50;;;;;;4189711;28;20052;-50
2021/06/23 12:27:41;;;;;;;0.00;0.00;;;20.00;64.30;;;;;;4195819;28;20041;-51
2021/06/23 12:30:05;;;;;;;0.63;0.63;;;20.00;64.20;;;;;;4210676;28;20044;-49
2021/06/23 12:32:27;;;;;;;0.82;0.82;;;20.00;64.00;;;;;;4210141;28;20126;-55
2021/06/23 12:34:49;;;;;;;0.20;0.20;;;20.00;63.70;;;;;;4205912;28;20043;-51
2021/06/23 12:37:12;;;;;;;0.13;0.13;;;20.10;63.60;;;;;;4210966;28;20052;-52
2021/06/23 12:39:34;;;;;;;0.10;0.10;;;20.10;63.60;;;;;;4201405;28;20125;-52
2021/06/23 12:41:56;;;;;;;0.90;0.90;;;20.10;63.60;;;;;;4210990;28;20051;-49
2021/06/23 12:44:20;;;;;;;0.00;0.00;;;20.10;63.70;;;;;;4209860;28;20044;-49
2021/06/23 12:46:42;;;;;;;0.10;0.10;;;20.10;63.60;;;;;;4210643;28;20056;-48
2021/06/23 12:49:05;;;;;;;0.05;0.05;;;20.20;63.50;;;;;;4209546;28;20059;-52
2021/06/23 12:51:27;;;;;;;0.00;0.00;;;20.20;63.40;;;;;;4210151;28;20048;-50
2021/06/23 12:53:49;;;;;;;0.00;0.00;;;20.20;63.30;;;;;;4210598;28;20046;-48